createdAt,value
2017-10-03T00:01:41.375Z,92.05
2017-10-03T00:04:09.011Z,91.31
2017-10-03T00:06:36.640Z,91.40
2017-10-03T00:09:04.284Z,91.51
2017-10-03T00:11:31.870Z,91.38
2017-10-03T00:13:59.633Z,90.80
2017-10-03T00:16:27.237Z,90.35
2017-10-03T00:18:54.865Z,90.27
2017-10-03T00:21:22.471Z,90.63
2017-10-03T00:23:50.150Z,90.63
2017-10-03T00:26:17.761Z,90.42
2017-10-03T00:28:45.384Z,90.52
2017-10-03T00:31:13.034Z,91.04
2017-10-03T00:33:40.623Z,90.42
2017-10-03T00:36:08.279Z,90.31
2017-10-03T00:38:35.874Z,90.50
2017-10-03T00:41:03.567Z,90.74
2017-10-03T00:43:31.236Z,90.38
2017-10-03T00:45:58.864Z,90.54
2017-10-03T00:48:26.424Z,90.80
2017-10-03T00:50:54.065Z,91.03
2017-10-03T00:53:21.657Z,91.22
2017-10-03T00:55:49.285Z,91.90
2017-10-03T00:58:16.892Z,91.80
2017-10-03T01:00:44.647Z,91.86
2017-10-03T01:03:12.274Z,92.18
2017-10-03T01:05:39.879Z,91.91
2017-10-03T01:08:07.526Z,91.19
2017-10-03T01:10:35.115Z,91.56
2017-10-03T01:13:02.784Z,91.61
2017-10-03T01:15:30.383Z,91.93
2017-10-03T01:17:58.054Z,92.75
2017-10-03T01:20:25.678Z,92.11
2017-10-03T01:22:53.345Z,91.85
2017-10-03T01:25:20.955Z,92.47
2017-10-03T01:27:48.591Z,92.47
2017-10-03T01:30:16.201Z,92.70
2017-10-03T01:32:44.053Z,93.30
2017-10-03T01:35:11.699Z,93.45
2017-10-03T01:40:50.419Z,93.62
2017-10-03T01:43:19.985Z,93.98
2017-10-03T01:45:47.820Z,94.30
2017-10-03T01:48:15.931Z,94.32
2017-10-03T01:50:44.482Z,94.49
2017-10-03T01:53:12.403Z,94.82
2017-10-03T01:55:40.957Z,94.97
2017-10-03T01:58:10.250Z,94.88
2017-10-03T02:00:39.510Z,95.10
2017-10-03T02:03:07.492Z,95.14
2017-10-03T02:05:35.600Z,95.08
2017-10-03T02:08:04.499Z,95.06
2017-10-03T02:10:32.521Z,94.71
2017-10-03T02:13:00.200Z,95.08
2017-10-03T02:15:27.913Z,95.32
2017-10-03T02:17:56.828Z,94.78
2017-10-03T02:20:27.098Z,95.03
2017-10-03T02:22:57.196Z,94.93
2017-10-03T02:25:25.903Z,94.74
2017-10-03T02:27:54.557Z,95.27
2017-10-03T02:30:23.185Z,95.61
2017-10-03T02:32:52.135Z,95.23
2017-10-03T02:35:20.593Z,94.96
2017-10-03T02:37:49.672Z,94.76
2017-10-03T02:40:19.017Z,94.49
2017-10-03T02:42:47.028Z,94.32
2017-10-03T02:45:15.670Z,94.36
2017-10-03T02:47:44.911Z,94.32
2017-10-03T02:50:13.444Z,94.26
2017-10-03T02:52:42.049Z,94.40
2017-10-03T02:55:09.919Z,94.37
2017-10-03T02:57:45.202Z,93.89
2017-10-03T03:00:13.344Z,93.04
2017-10-03T03:02:41.257Z,92.37
2017-10-03T03:05:08.973Z,91.77
2017-10-03T03:07:36.764Z,91.86
2017-10-03T03:10:04.493Z,91.15
2017-10-03T03:12:32.236Z,91.45
2017-10-03T03:14:59.984Z,91.69
2017-10-03T03:17:27.718Z,91.25
2017-10-03T03:19:56.583Z,91.29
2017-10-03T03:22:25.277Z,91.75
2017-10-03T03:24:53.048Z,91.25
2017-10-03T03:27:20.792Z,90.92
2017-10-03T03:29:48.872Z,91.17
2017-10-03T03:32:16.642Z,91.39
2017-10-03T03:34:44.407Z,91.17
2017-10-03T03:37:12.382Z,91.65
2017-10-03T03:39:40.263Z,91.83
2017-10-03T03:42:07.998Z,91.85
2017-10-03T03:44:35.709Z,91.88
2017-10-03T03:47:03.443Z,91.94
2017-10-03T03:49:31.171Z,92.34
2017-10-03T03:51:58.884Z,92.55
2017-10-03T03:54:26.598Z,92.69
2017-10-03T03:56:54.318Z,92.86
2017-10-03T03:59:25.600Z,92.70
2017-10-03T04:01:54.589Z,93.01
2017-10-03T04:04:22.483Z,93.45
2017-10-03T04:06:50.265Z,93.52
2017-10-03T04:09:20.457Z,93.39
2017-10-03T04:11:48.652Z,93.46
2017-10-03T04:14:17.123Z,93.77
2017-10-03T04:16:45.082Z,94.01
2017-10-03T04:19:13.607Z,94.05
2017-10-03T04:21:41.313Z,94.19
2017-10-03T04:24:10.101Z,94.24
2017-10-03T04:26:37.807Z,94.42
2017-10-03T04:29:07.684Z,94.54
2017-10-03T04:31:36.280Z,94.66
2017-10-03T04:34:05.392Z,94.70
2017-10-03T04:36:34.007Z,95.05
2017-10-03T04:39:02.182Z,95.29
2017-10-03T04:41:29.859Z,95.31
2017-10-03T04:44:00.866Z,95.06
2017-10-03T04:46:29.809Z,94.85
2017-10-03T04:48:59.598Z,94.69
2017-10-03T04:51:29.191Z,94.46
2017-10-03T04:53:57.277Z,94.33
2017-10-03T04:56:25.266Z,93.93
2017-10-03T04:58:53.197Z,94.10
2017-10-03T05:01:21.108Z,93.95
2017-10-03T05:03:48.986Z,93.74
2017-10-03T05:06:16.938Z,93.63
2017-10-03T05:08:44.882Z,93.78
2017-10-03T05:11:12.887Z,93.64
2017-10-03T05:13:42.049Z,93.72
2017-10-03T05:16:11.675Z,93.73
2017-10-03T05:18:39.647Z,93.67
2017-10-03T05:21:07.725Z,93.97
2017-10-03T05:23:35.759Z,94.02
2017-10-03T05:26:03.835Z,94.17
2017-10-03T05:28:32.680Z,94.04
2017-10-03T05:31:01.612Z,94.15
2017-10-03T05:33:30.306Z,93.87
2017-10-03T05:35:58.364Z,93.94
2017-10-03T05:38:26.353Z,94.07
2017-10-03T05:40:55.187Z,94.14
2017-10-03T05:43:23.710Z,94.17
2017-10-03T05:45:51.733Z,94.10
2017-10-03T05:48:19.579Z,94.18
2017-10-03T05:50:47.391Z,94.11
2017-10-03T05:53:15.204Z,94.16
2017-10-03T05:55:43.017Z,94.07
2017-10-03T05:58:12.764Z,94.23
2017-10-03T06:00:41.044Z,94.21
2017-10-03T06:03:09.013Z,94.24
2017-10-03T06:05:37.037Z,94.03
2017-10-03T06:08:05.043Z,94.04
2017-10-03T06:10:33.133Z,94.12
2017-10-03T06:13:01.137Z,93.87
2017-10-03T06:15:29.350Z,93.48
2017-10-03T06:17:57.890Z,93.67
2017-10-03T06:20:25.801Z,93.54
2017-10-03T06:22:53.865Z,93.21
2017-10-03T06:25:22.514Z,93.17
2017-10-03T06:30:25.388Z,93.09
2017-10-03T06:32:53.371Z,93.03
2017-10-03T06:35:21.606Z,92.94
2017-10-03T06:37:49.556Z,92.35
2017-10-03T06:40:17.321Z,92.13
2017-10-03T06:42:45.144Z,92.06
2017-10-03T06:45:12.950Z,92.21
2017-10-03T06:47:41.750Z,91.92
2017-10-03T06:50:09.532Z,92.23
2017-10-03T06:52:37.314Z,92.93
2017-10-03T06:55:05.091Z,93.20
2017-10-03T06:57:32.960Z,93.14
2017-10-03T07:00:00.784Z,93.36
2017-10-03T07:02:28.536Z,93.53
2017-10-03T07:04:56.355Z,93.47
2017-10-03T07:07:24.148Z,93.80
2017-10-03T07:09:52.005Z,93.73
2017-10-03T07:12:19.828Z,93.52
2017-10-03T07:14:48.454Z,92.35
2017-10-03T07:17:16.349Z,92.83
2017-10-03T07:19:44.124Z,92.82
2017-10-03T07:22:12.666Z,92.81
2017-10-03T07:24:40.488Z,92.51
2017-10-03T07:27:08.223Z,92.18
2017-10-03T07:29:36.933Z,91.87
2017-10-03T07:32:04.989Z,91.68
2017-10-03T07:34:32.996Z,92.03
2017-10-03T07:37:00.906Z,91.28
2017-10-03T07:39:29.207Z,92.13
2017-10-03T07:41:57.285Z,91.89
2017-10-03T07:44:25.186Z,91.99
2017-10-03T07:46:53.322Z,91.43
2017-10-03T07:49:21.089Z,91.38
2017-10-03T07:51:49.604Z,91.82
2017-10-03T07:54:17.357Z,91.90
2017-10-03T07:56:45.164Z,91.79
2017-10-03T07:59:12.967Z,91.52
2017-10-03T08:01:40.698Z,91.30
2017-10-03T08:04:08.476Z,91.37
2017-10-03T08:06:36.379Z,91.41
2017-10-03T08:09:04.073Z,91.32
2017-10-03T08:11:32.250Z,91.14
2017-10-03T08:14:00.024Z,90.71
2017-10-03T08:16:27.731Z,90.66
2017-10-03T08:18:55.547Z,90.58
2017-10-03T08:21:23.323Z,90.80
2017-10-03T08:23:51.092Z,90.71
2017-10-03T08:26:18.857Z,90.48
2017-10-03T08:28:46.603Z,90.37
2017-10-03T08:31:14.384Z,89.81
2017-10-03T08:33:42.470Z,90.19
2017-10-03T08:36:10.172Z,89.96
2017-10-03T08:38:37.880Z,89.64
2017-10-03T08:41:05.670Z,89.64
2017-10-03T08:43:33.494Z,89.05
2017-10-03T08:46:01.259Z,89.14
2017-10-03T08:48:29.056Z,88.90
2017-10-03T08:50:56.821Z,88.48
2017-10-03T08:53:24.541Z,88.11
2017-10-03T08:55:52.367Z,87.85
2017-10-03T08:58:20.160Z,87.58
2017-10-03T09:00:48.827Z,87.98
2017-10-03T09:03:16.702Z,85.58
2017-10-03T09:05:44.522Z,85.80
2017-10-03T09:08:12.479Z,85.63
2017-10-03T09:10:40.219Z,84.57
2017-10-03T09:13:08.004Z,84.38
2017-10-03T09:15:36.311Z,84.89
2017-10-03T09:18:04.588Z,84.40
2017-10-03T09:20:32.280Z,84.44
2017-10-03T09:23:00.583Z,83.23
2017-10-03T09:25:28.352Z,82.72
2017-10-03T09:27:56.525Z,82.32
2017-10-03T09:30:24.222Z,82.18
2017-10-03T09:32:52.039Z,82.54
2017-10-03T09:35:19.912Z,82.05
2017-10-03T09:37:47.719Z,81.61
2017-10-03T09:40:15.479Z,81.06
2017-10-03T09:42:43.153Z,80.82
2017-10-03T09:45:10.895Z,80.42
2017-10-03T09:47:38.856Z,80.54
2017-10-03T09:50:06.614Z,79.27
2017-10-03T09:52:34.243Z,78.92
2017-10-03T09:55:02.198Z,79.98
2017-10-03T09:57:30.140Z,80.50
2017-10-03T09:59:58.304Z,80.98
2017-10-03T10:02:26.042Z,80.85
2017-10-03T10:04:53.813Z,81.16
2017-10-03T10:07:21.448Z,80.83
2017-10-03T10:09:49.235Z,81.67
2017-10-03T10:12:17.143Z,80.51
2017-10-03T10:14:46.455Z,81.10
2017-10-03T10:17:16.065Z,81.29
2017-10-03T10:19:44.104Z,80.51
2017-10-03T10:22:13.128Z,77.13
2017-10-03T10:24:41.583Z,76.20
2017-10-03T10:27:09.833Z,74.93
2017-10-03T10:29:37.712Z,72.25
2017-10-03T10:32:05.635Z,71.04
2017-10-03T10:34:33.554Z,69.75
2017-10-03T10:37:02.903Z,69.72
2017-10-03T10:39:32.085Z,69.13
2017-10-03T10:41:59.912Z,68.95
2017-10-03T10:44:27.840Z,68.77
2017-10-03T10:46:57.257Z,66.37
2017-10-03T10:49:25.332Z,68.17
2017-10-03T10:51:54.336Z,68.16
2017-10-03T10:54:23.115Z,68.43
2017-10-03T10:56:50.859Z,70.88
2017-10-03T10:59:25.418Z,71.87
2017-10-03T11:01:54.470Z,71.85
2017-10-03T11:04:22.524Z,71.14
2017-10-03T11:06:50.390Z,69.25
2017-10-03T11:09:18.294Z,70.21
2017-10-03T11:11:46.364Z,70.68
2017-10-03T11:14:14.305Z,70.71
2017-10-03T11:16:42.305Z,69.15
2017-10-03T11:19:10.287Z,67.85
2017-10-03T11:21:38.189Z,66.89
2017-10-03T11:24:17.653Z,68.12
2017-10-03T11:26:46.622Z,69.08
2017-10-03T11:29:15.303Z,68.73
2017-10-03T11:31:43.182Z,67.61
2017-10-03T11:34:11.076Z,69.01
2017-10-03T11:36:38.941Z,69.86
2017-10-03T11:39:06.852Z,70.65
2017-10-03T11:41:34.772Z,70.23
2017-10-03T11:44:02.612Z,69.30
2017-10-03T11:46:30.659Z,68.57
2017-10-03T11:48:58.668Z,67.02
2017-10-03T11:51:26.581Z,64.27
2017-10-03T11:53:54.498Z,62.13
2017-10-03T11:56:22.380Z,62.55
2017-10-03T11:58:50.095Z,63.54
2017-10-03T12:01:17.916Z,63.23
2017-10-03T12:03:45.722Z,60.77
2017-10-03T12:06:13.621Z,60.49
2017-10-03T12:08:41.364Z,58.58
2017-10-03T12:11:09.158Z,57.59
2017-10-03T12:13:36.911Z,55.90
2017-10-03T12:16:04.700Z,55.72
2017-10-03T12:18:32.486Z,54.56
2017-10-03T12:21:00.265Z,54.13
2017-10-03T12:23:28.044Z,54.76
2017-10-03T12:25:55.852Z,55.01
2017-10-03T12:28:23.617Z,53.58
2017-10-03T12:30:51.400Z,53.77
2017-10-03T12:33:19.098Z,53.68
2017-10-03T12:35:46.846Z,53.47
2017-10-03T12:38:14.667Z,53.19
2017-10-03T12:40:42.387Z,52.61
2017-10-03T12:43:10.131Z,52.38
2017-10-03T12:45:37.875Z,52.14
2017-10-03T12:48:05.613Z,52.14
2017-10-03T12:50:33.313Z,52.71
2017-10-03T12:53:01.064Z,55.00
2017-10-03T12:55:28.837Z,56.25
2017-10-03T12:57:56.628Z,58.33
2017-10-03T13:00:24.568Z,58.71
2017-10-03T13:02:54.696Z,60.15
2017-10-03T13:05:22.693Z,59.44
2017-10-03T13:07:52.286Z,60.25
2017-10-03T13:10:20.953Z,61.07
2017-10-03T13:12:49.878Z,61.48
2017-10-03T13:15:19.302Z,61.99
2017-10-03T13:17:47.904Z,61.85
2017-10-03T13:20:15.740Z,62.76
2017-10-03T13:22:43.664Z,63.13
2017-10-03T13:25:11.479Z,63.93
2017-10-03T13:27:39.490Z,62.28
2017-10-03T13:30:07.968Z,62.48
2017-10-03T13:32:36.007Z,62.41
2017-10-03T13:35:03.881Z,62.90
2017-10-03T13:37:32.451Z,64.32
2017-10-03T13:42:36.014Z,65.10
2017-10-03T13:45:03.898Z,65.28
2017-10-03T13:47:33.640Z,65.90
2017-10-03T13:50:02.433Z,66.22
2017-10-03T13:52:30.378Z,66.66
2017-10-03T13:54:58.168Z,66.76
2017-10-03T13:57:27.177Z,66.88
2017-10-03T13:59:54.873Z,66.81
2017-10-03T14:02:23.081Z,67.23
2017-10-03T14:04:51.065Z,68.00
2017-10-03T14:07:18.803Z,68.44
2017-10-03T14:09:46.551Z,68.68
2017-10-03T14:12:14.594Z,69.52
2017-10-03T14:14:45.062Z,69.63
2017-10-03T14:17:13.132Z,69.77
2017-10-03T14:19:41.532Z,70.18
2017-10-03T14:22:09.869Z,70.24
2017-10-03T14:24:38.324Z,70.29
2017-10-03T14:27:06.102Z,71.26
2017-10-03T14:29:34.040Z,71.68
2017-10-03T14:32:02.606Z,72.07
2017-10-03T14:34:30.888Z,70.94
2017-10-03T14:36:58.761Z,71.31
2017-10-03T14:39:27.324Z,71.39
2017-10-03T14:41:57.035Z,72.07
2017-10-03T14:44:33.852Z,70.91
2017-10-03T14:47:05.015Z,69.76
2017-10-03T14:49:35.478Z,70.29
2017-10-03T14:52:05.638Z,69.97
2017-10-03T14:54:34.630Z,66.02
2017-10-03T14:57:03.961Z,65.90
2017-10-03T14:59:34.144Z,65.87
2017-10-03T15:02:02.558Z,66.78
2017-10-03T15:04:33.510Z,67.24
2017-10-03T15:07:01.611Z,69.38
2017-10-03T15:09:30.549Z,67.92
2017-10-03T15:11:59.055Z,67.72
2017-10-03T15:14:28.000Z,68.85
2017-10-03T15:16:57.380Z,68.25
2017-10-03T15:19:25.115Z,68.70
2017-10-03T15:21:56.681Z,67.18
2017-10-03T15:24:32.095Z,67.49
2017-10-03T15:27:00.594Z,67.21
2017-10-03T15:29:31.122Z,67.23
2017-10-03T15:32:00.265Z,67.32
2017-10-03T15:34:30.753Z,67.55
2017-10-03T15:37:01.058Z,67.71
2017-10-03T15:39:28.822Z,67.03
2017-10-03T15:41:56.539Z,67.28
2017-10-03T15:44:24.324Z,67.06
2017-10-03T15:46:53.319Z,67.64
2017-10-03T15:49:21.071Z,67.89
2017-10-03T15:51:51.006Z,67.94
2017-10-03T15:54:18.856Z,68.05
2017-10-03T15:56:47.781Z,68.68
2017-10-03T15:59:16.873Z,68.78
2017-10-03T16:01:46.803Z,68.56
2017-10-03T16:04:15.357Z,68.90
2017-10-03T16:06:43.144Z,69.12
2017-10-03T16:09:13.174Z,68.97
2017-10-03T16:11:41.645Z,69.40
2017-10-03T16:14:09.516Z,69.08
2017-10-03T16:16:37.386Z,69.34
2017-10-03T16:19:05.585Z,69.70
2017-10-03T16:21:37.090Z,69.76
2017-10-03T16:24:06.071Z,70.11
2017-10-03T16:26:36.073Z,70.02
2017-10-03T16:29:05.354Z,70.12
2017-10-03T16:31:36.425Z,70.46
2017-10-03T16:34:04.695Z,70.15
2017-10-03T16:36:34.341Z,70.20
2017-10-03T16:39:02.984Z,70.57
2017-10-03T16:41:30.854Z,70.45
2017-10-03T16:43:59.542Z,70.70
2017-10-03T16:46:27.421Z,70.97
2017-10-03T16:48:55.395Z,71.23
2017-10-03T16:51:23.351Z,71.33
2017-10-03T16:53:51.221Z,71.38
2017-10-03T16:56:19.218Z,71.59
2017-10-03T16:58:47.167Z,71.82
2017-10-03T17:01:15.016Z,72.30
2017-10-03T17:03:43.001Z,72.23
2017-10-03T17:06:11.969Z,72.35
2017-10-03T17:08:40.189Z,72.37
2017-10-03T17:11:08.381Z,72.43
2017-10-03T17:13:36.357Z,72.58
2017-10-03T17:16:05.426Z,74.74
2017-10-03T17:18:33.715Z,73.69
2017-10-03T17:21:02.062Z,73.27
2017-10-03T17:23:31.229Z,73.33
2017-10-03T17:26:00.354Z,73.60
2017-10-03T17:28:28.604Z,73.92
2017-10-03T17:30:57.670Z,73.81
2017-10-03T17:33:25.975Z,74.16
2017-10-03T17:35:56.937Z,74.45
2017-10-03T17:38:24.804Z,74.90
2017-10-03T17:40:54.783Z,75.38
2017-10-03T17:43:25.811Z,76.15
2017-10-03T17:45:54.206Z,77.11
2017-10-03T17:48:22.373Z,75.62
2017-10-03T17:50:50.272Z,75.75
2017-10-03T17:53:18.102Z,75.91
2017-10-03T17:55:57.930Z,76.00
2017-10-03T17:58:26.445Z,76.00
2017-10-03T18:00:54.445Z,76.09
2017-10-03T18:03:22.137Z,76.35
2017-10-03T18:05:49.833Z,76.28
2017-10-03T18:08:17.718Z,76.14
2017-10-03T18:10:45.589Z,76.47
2017-10-03T18:13:13.275Z,75.81
2017-10-03T18:15:41.071Z,75.49
2017-10-03T18:18:09.086Z,75.12
2017-10-03T18:23:40.965Z,74.94
2017-10-03T18:26:11.869Z,74.58
2017-10-03T18:29:03.006Z,74.65
2017-10-03T18:31:30.784Z,74.47
2017-10-03T18:33:58.853Z,74.22
2017-10-03T18:36:26.594Z,73.81
2017-10-03T18:38:54.264Z,73.88
2017-10-03T18:41:21.953Z,73.88
2017-10-03T18:43:49.715Z,73.56
2017-10-03T18:46:17.493Z,73.64
2017-10-03T18:48:45.225Z,73.71
2017-10-03T18:51:12.940Z,73.71
2017-10-03T18:53:40.652Z,73.68
2017-10-03T18:56:08.344Z,73.35
2017-10-03T18:58:36.240Z,73.52
2017-10-03T19:01:03.931Z,73.31
2017-10-03T19:03:31.630Z,73.27
2017-10-03T19:05:59.354Z,73.40
2017-10-03T19:08:27.033Z,73.60
2017-10-03T19:10:54.877Z,73.54
2017-10-03T19:13:22.627Z,73.59
2017-10-03T19:15:50.305Z,73.85
2017-10-03T19:18:18.007Z,73.81
2017-10-03T19:20:45.824Z,74.16
2017-10-03T19:23:13.657Z,74.19
2017-10-03T19:25:41.308Z,74.45
2017-10-03T19:28:09.041Z,74.49
2017-10-03T19:30:36.710Z,74.50
2017-10-03T19:33:04.375Z,74.63
2017-10-03T19:35:32.056Z,74.78
2017-10-03T19:37:59.730Z,74.82
2017-10-03T19:40:27.584Z,74.82
2017-10-03T19:42:55.247Z,74.96
2017-10-03T19:45:22.938Z,74.95
2017-10-03T19:47:50.619Z,75.05
2017-10-03T19:50:19.379Z,74.91
2017-10-03T19:52:47.149Z,75.09
2017-10-03T19:55:14.892Z,75.29
2017-10-03T19:57:42.603Z,75.09
2017-10-03T20:00:10.258Z,75.06
2017-10-03T20:02:38.046Z,75.23
2017-10-03T20:05:05.867Z,75.42
2017-10-03T20:07:33.577Z,75.50
2017-10-03T20:10:01.649Z,78.56
2017-10-03T20:12:29.384Z,79.91
2017-10-03T20:14:57.132Z,74.85
2017-10-03T20:17:24.813Z,74.86
2017-10-03T20:19:52.512Z,75.07
2017-10-03T20:22:20.156Z,75.13
2017-10-03T20:24:48.527Z,75.17
2017-10-03T20:27:16.223Z,75.76
2017-10-03T20:29:44.148Z,76.27
2017-10-03T20:32:12.109Z,76.69
2017-10-03T20:34:39.808Z,76.96
2017-10-03T20:37:07.551Z,76.71
2017-10-03T20:39:35.637Z,76.80
2017-10-03T20:42:03.375Z,76.87
2017-10-03T20:44:31.624Z,76.94
2017-10-03T20:46:59.603Z,77.24
2017-10-03T20:49:27.512Z,77.49
2017-10-03T20:51:55.362Z,77.90
2017-10-03T20:54:23.307Z,78.26
2017-10-03T20:56:51.151Z,78.37
2017-10-03T20:59:19.065Z,78.48
2017-10-03T21:01:46.983Z,78.57
2017-10-03T21:04:15.091Z,78.66
2017-10-03T21:06:43.278Z,79.40
2017-10-03T21:09:11.087Z,79.71
2017-10-03T21:11:38.793Z,79.47
2017-10-03T21:14:06.491Z,78.96
2017-10-03T21:16:34.310Z,78.95
2017-10-03T21:19:02.016Z,78.70
2017-10-03T21:21:29.697Z,78.84
2017-10-03T21:23:57.342Z,78.79
2017-10-03T21:26:25.045Z,79.03
2017-10-03T21:28:53.859Z,79.07
2017-10-03T21:31:21.734Z,79.04
2017-10-03T21:33:49.435Z,79.01
2017-10-03T21:36:17.241Z,79.65
2017-10-03T21:38:45.310Z,79.94
2017-10-03T21:41:13.073Z,80.25
2017-10-03T21:43:42.041Z,80.56
2017-10-03T21:46:09.851Z,81.22
2017-10-03T21:48:37.555Z,81.69
2017-10-03T21:51:05.285Z,81.96
2017-10-03T21:53:33.033Z,81.96
2017-10-03T21:56:00.834Z,82.10
2017-10-03T21:58:28.651Z,82.06
2017-10-03T22:00:56.441Z,82.17
2017-10-03T22:03:24.187Z,82.17
2017-10-03T22:05:52.100Z,81.97
2017-10-03T22:08:19.870Z,81.94
2017-10-03T22:10:47.753Z,81.86
2017-10-03T22:13:15.552Z,81.64
2017-10-03T22:15:43.305Z,81.62
2017-10-03T22:18:11.243Z,82.29
2017-10-03T22:20:39.072Z,82.26
2017-10-03T22:23:07.803Z,82.31
2017-10-03T22:25:35.717Z,82.50
2017-10-03T22:28:03.522Z,82.51
2017-10-03T22:30:31.346Z,82.64
2017-10-03T22:32:59.207Z,82.93
2017-10-03T22:35:27.181Z,82.90
2017-10-03T22:37:56.271Z,82.55
2017-10-03T22:40:24.124Z,82.59
2017-10-03T22:48:02.342Z,82.31
2017-10-03T22:50:34.129Z,82.33
2017-10-03T22:53:02.744Z,82.22
2017-10-03T22:55:34.653Z,81.98
2017-10-03T22:58:04.235Z,81.73
2017-10-03T23:00:33.804Z,81.87
2017-10-03T23:03:05.307Z,81.80
2017-10-03T23:05:37.972Z,81.88
2017-10-03T23:08:06.149Z,81.85
2017-10-03T23:10:34.147Z,82.06
2017-10-03T23:13:02.227Z,82.16
2017-10-03T23:15:31.700Z,82.40
2017-10-03T23:18:02.580Z,82.31
2017-10-03T23:20:33.617Z,82.16
2017-10-03T23:23:06.769Z,82.39
2017-10-03T23:25:35.745Z,82.59
2017-10-03T23:28:04.605Z,82.34
2017-10-03T23:30:32.783Z,82.41
2017-10-03T23:33:01.426Z,82.68
2017-10-03T23:35:35.043Z,82.71
2017-10-03T23:38:05.961Z,82.72
2017-10-03T23:40:34.432Z,82.44
2017-10-03T23:43:06.266Z,82.21
2017-10-03T23:45:34.260Z,82.17
2017-10-03T23:48:02.400Z,82.08
2017-10-03T23:50:31.931Z,82.12
2017-10-03T23:53:00.906Z,82.52
2017-10-03T23:55:32.414Z,82.52
2017-10-03T23:58:00.640Z,82.77
